createdAt,value
2019-01-18T00:01:11.863Z,"    0"
2019-01-18T00:06:07.683Z,"    0"
2019-01-18T00:11:03.443Z,"    0"
2019-01-18T00:15:59.047Z,"    0"
2019-01-18T00:20:54.857Z,"    0"
2019-01-18T00:25:51.594Z,"    0"
2019-01-18T00:30:48.068Z,"    0"
2019-01-18T00:35:43.667Z,"    0"
2019-01-18T00:40:39.345Z,"    0"
2019-01-18T00:45:35.756Z,"    0"
2019-01-18T00:50:31.529Z,"    0"
2019-01-18T00:55:28.154Z,"    0"
2019-01-18T01:00:23.141Z,"    0"
2019-01-18T01:05:19.062Z,"    0"
2019-01-18T01:10:15.524Z,"    0"
2019-01-18T01:15:10.960Z,"    0"
2019-01-18T01:20:07.196Z,"    0"
2019-01-18T01:25:03.952Z,"    0"
2019-01-18T01:29:59.367Z,"    0"
2019-01-18T01:34:55.148Z,"    0"
2019-01-18T01:39:51.899Z,"    0"
2019-01-18T01:44:47.249Z,"    0"
2019-01-18T01:49:44.129Z,"    0"
2019-01-18T01:54:40.352Z,"    0"
2019-01-18T01:59:35.606Z,"    0"
2019-01-18T02:04:31.341Z,"    0"
2019-01-18T02:09:26.776Z,"    0"
2019-01-18T02:14:21.997Z,"    0"
2019-01-18T02:19:17.506Z,"    0"
2019-01-18T02:24:14.582Z,"    0"
2019-01-18T02:29:09.883Z,"    0"
2019-01-18T02:34:05.575Z,"    0"
2019-01-18T02:39:01.055Z,"    0"
2019-01-18T02:43:56.732Z,"    0"
2019-01-18T02:48:53.914Z,"    0"
2019-01-18T02:53:49.374Z,"    0"
2019-01-18T02:58:45.124Z,"    0"
2019-01-18T03:03:41.455Z,"    0"
2019-01-18T03:08:38.107Z,"    0"
2019-01-18T03:13:34.426Z,"    0"
2019-01-18T03:18:29.792Z,"    0"
2019-01-18T03:23:25.311Z,"    0"
2019-01-18T03:28:20.809Z,"    0"
2019-01-18T03:33:17.915Z,"    0"
2019-01-18T03:38:13.329Z,"    0"
2019-01-18T03:43:10.251Z,"    0"
2019-01-18T03:48:05.489Z,"    0"
2019-01-18T03:53:01.049Z,"    0"
2019-01-18T03:57:56.800Z,"    0"
2019-01-18T04:02:52.238Z,"    0"
2019-01-18T04:07:49.035Z,"    0"
2019-01-18T04:12:44.498Z,"    0"
2019-01-18T04:17:41.090Z,"    0"
2019-01-18T04:22:37.570Z,"    0"
2019-01-18T04:27:32.826Z,"    0"
2019-01-18T04:32:28.418Z,"    0"
2019-01-18T04:37:24.357Z,"    0"
2019-01-18T04:42:20.990Z,"    0"
2019-01-18T04:47:16.569Z,"    0"
2019-01-18T04:52:12.194Z,"    0"
2019-01-18T04:57:07.816Z,"    0"
2019-01-18T05:02:04.339Z,"    0"
2019-01-18T05:07:00.048Z,"    0"
2019-01-18T05:11:55.648Z,"    0"
2019-01-18T05:16:51.260Z,"    0"
2019-01-18T05:21:47.862Z,"    0"
2019-01-18T05:26:44.717Z,"    0"
2019-01-18T05:31:40.723Z,"    0"
2019-01-18T05:36:36.433Z,"    0"
2019-01-18T05:41:32.051Z,"    0"
2019-01-18T05:46:28.591Z,"    0"
2019-01-18T05:51:23.708Z,"    0"
2019-01-18T05:56:19.964Z,"    0"
2019-01-18T06:01:15.970Z,"    0"
2019-01-18T06:06:11.638Z,"    0"
2019-01-18T06:11:07.252Z,"    0"
2019-01-18T06:16:02.813Z,"    0"
2019-01-18T06:20:58.332Z,"    0"
2019-01-18T06:25:53.857Z,"    0"
2019-01-18T06:30:49.423Z,"    0"
2019-01-18T06:35:46.130Z,"    0"
2019-01-18T06:40:41.505Z,"    0"
2019-01-18T06:45:39.082Z,"    0"
2019-01-18T06:50:35.290Z,"    0"
2019-01-18T06:55:31.661Z,"    0"
2019-01-18T07:00:27.979Z,"    4"
2019-01-18T07:05:23.299Z,"   12"
2019-01-18T07:10:20.843Z,"   24"
2019-01-18T07:15:16.258Z,"   52"
2019-01-18T07:20:11.838Z,"   88"
2019-01-18T07:25:07.606Z,"  144"
2019-01-18T07:30:03.003Z,"  212"
2019-01-18T07:34:58.910Z,"  284"
2019-01-18T07:39:54.494Z,"  376"
2019-01-18T07:44:50.030Z,"  472"
2019-01-18T07:49:46.628Z,"  556"
2019-01-18T07:54:44.133Z,"  644"
2019-01-18T07:59:39.375Z,"  736"
2019-01-18T08:04:34.902Z,"  840"
2019-01-18T08:09:30.615Z,"  928"
2019-01-18T08:14:26.311Z," 1016"
2019-01-18T08:19:21.950Z," 1132"
2019-01-18T08:24:17.479Z," 1228"
2019-01-18T08:29:14.214Z," 1356"
2019-01-18T08:34:09.656Z," 1412"
2019-01-18T08:39:05.594Z," 1448"
2019-01-18T08:44:01.414Z," 1544"
2019-01-18T08:49:04.354Z," 1652"
2019-01-18T08:53:58.277Z," 1704"
2019-01-18T08:58:53.973Z," 1812"
2019-01-18T09:03:50.690Z," 1808"
2019-01-18T09:08:46.093Z," 1896"
2019-01-18T09:13:41.887Z," 1980"
2019-01-18T09:18:38.383Z," 2016"
2019-01-18T09:23:33.947Z," 2160"
2019-01-18T09:28:29.835Z," 2048"
2019-01-18T09:33:25.508Z," 2260"
2019-01-18T09:38:20.852Z," 2380"
2019-01-18T09:43:17.837Z," 2624"
2019-01-18T09:48:15.111Z," 2104"
2019-01-18T09:53:11.350Z," 2340"
2019-01-18T09:58:07.419Z," 2472"
2019-01-18T10:03:03.183Z," 2276"
2019-01-18T10:07:58.753Z," 2236"
2019-01-18T10:12:54.519Z," 2300"
2019-01-18T10:17:50.865Z," 2892"
2019-01-18T10:22:46.568Z," 2900"
2019-01-18T10:27:42.476Z," 2452"
2019-01-18T10:32:38.005Z," 2664"
2019-01-18T10:37:33.671Z," 2720"
2019-01-18T10:42:29.697Z," 2816"
2019-01-18T10:47:27.010Z," 3156"
2019-01-18T10:52:22.165Z," 4216"
2019-01-18T10:57:17.978Z," 3820"
2019-01-18T11:02:15.135Z," 5588"
2019-01-18T11:07:10.577Z," 5364"
2019-01-18T11:12:06.705Z," 9712"
2019-01-18T11:17:03.447Z," 9296"
2019-01-18T11:21:59.880Z," 7976"
2019-01-18T11:26:56.011Z," 9560"
2019-01-18T11:31:52.884Z," 6856"
2019-01-18T11:36:48.269Z,10020
2019-01-18T11:41:44.200Z,11948
2019-01-18T11:46:39.772Z,11012
2019-01-18T11:51:37.808Z," 8084"
2019-01-18T11:56:36.387Z," 9432"
2019-01-18T12:01:32.605Z," 9724"
2019-01-18T12:06:28.214Z," 8836"
2019-01-18T12:11:25.669Z," 3268"
2019-01-18T12:16:23.487Z," 5304"
2019-01-18T12:21:19.467Z," 4824"
2019-01-18T12:26:14.754Z," 4392"
2019-01-18T12:31:11.504Z," 3444"
2019-01-18T12:36:06.893Z," 2712"
2019-01-18T12:41:02.520Z," 2732"
2019-01-18T12:45:58.084Z," 2560"
2019-01-18T12:50:53.727Z," 2324"
2019-01-18T12:55:49.859Z," 2268"
2019-01-18T13:00:45.209Z," 2208"
2019-01-18T13:05:41.664Z," 2184"
2019-01-18T13:10:37.369Z," 2180"
2019-01-18T13:15:33.380Z," 2136"
2019-01-18T13:20:29.390Z," 2100"
2019-01-18T13:25:28.270Z," 2088"
2019-01-18T13:30:27.468Z," 2032"
2019-01-18T13:35:22.281Z," 2020"
2019-01-18T13:40:18.253Z," 2004"
2019-01-18T13:45:13.960Z," 2012"
2019-01-18T13:50:10.559Z," 2064"
2019-01-18T13:55:05.769Z," 2036"
2019-01-18T14:00:01.476Z," 1996"
2019-01-18T14:04:58.743Z," 2032"
2019-01-18T14:09:57.368Z," 2044"
2019-01-18T14:14:52.263Z," 1944"
2019-01-18T14:19:47.734Z," 1892"
2019-01-18T14:24:45.149Z," 1812"
2019-01-18T14:29:40.526Z," 1748"
2019-01-18T14:34:36.421Z," 1696"
2019-01-18T14:39:33.542Z," 1536"
2019-01-18T14:44:28.899Z," 1360"
2019-01-18T14:49:24.409Z," 1252"
2019-01-18T14:54:19.968Z," 1132"
2019-01-18T14:59:15.843Z," 1060"
2019-01-18T15:04:11.481Z,"  984"
2019-01-18T15:09:08.227Z,"  868"
2019-01-18T15:14:04.684Z,"  728"
2019-01-18T15:19:00.677Z,"  600"
2019-01-18T15:23:57.001Z,"  496"
2019-01-18T15:28:53.632Z,"  408"
2019-01-18T15:33:48.904Z,"  332"
2019-01-18T15:38:44.531Z,"  264"
2019-01-18T15:43:43.257Z,"  204"
2019-01-18T15:48:38.048Z,"  148"
2019-01-18T15:53:33.571Z,"  100"
2019-01-18T15:58:30.779Z,"   64"
2019-01-18T16:03:30.915Z,"   36"
2019-01-18T16:08:25.341Z,"   20"
2019-01-18T16:13:21.039Z,"    8"
2019-01-18T16:18:16.200Z,"    4"
2019-01-18T16:23:11.702Z,"    4"
2019-01-18T16:28:07.662Z,"    0"
2019-01-18T16:33:03.219Z,"    0"
2019-01-18T16:37:59.044Z,"    0"
2019-01-18T16:42:55.614Z,"    0"
2019-01-18T16:47:50.866Z,"    0"
2019-01-18T16:52:46.647Z,"    0"
2019-01-18T16:57:43.110Z,"    0"
2019-01-18T17:02:38.562Z,"    0"
2019-01-18T17:07:34.296Z,"    0"
2019-01-18T17:12:31.062Z,"    0"
2019-01-18T17:17:26.645Z,"    0"
2019-01-18T17:22:22.392Z,"    0"
2019-01-18T17:27:18.865Z,"    0"
2019-01-18T17:32:14.336Z,"    0"
2019-01-18T17:37:10.281Z,"    0"
2019-01-18T17:42:05.731Z,"    0"
2019-01-18T17:47:02.790Z,"    0"
2019-01-18T17:51:58.660Z,"    0"
2019-01-18T17:56:59.650Z,"    0"
2019-01-18T18:01:57.163Z,"    0"
2019-01-18T18:06:55.914Z,"    0"
2019-01-18T18:11:50.409Z,"    0"
2019-01-18T18:16:45.527Z,"    0"
2019-01-18T18:21:41.173Z,"    0"
2019-01-18T18:26:41.675Z,"    0"
2019-01-18T18:31:39.451Z,"    0"
2019-01-18T18:36:35.087Z,"    0"
2019-01-18T18:41:33.383Z,"    0"
2019-01-18T18:46:28.466Z,"    0"
2019-01-18T18:51:25.207Z,"    0"
2019-01-18T18:56:21.660Z,"    0"
2019-01-18T19:01:17.073Z,"    0"
2019-01-18T19:06:12.909Z,"    0"
2019-01-18T19:11:08.648Z,"    0"
2019-01-18T19:16:04.509Z,"    0"
2019-01-18T19:21:00.052Z,"    0"
2019-01-18T19:25:56.849Z,"    0"
2019-01-18T19:30:51.943Z,"    0"
2019-01-18T19:35:48.649Z,"    0"
2019-01-18T19:40:43.911Z,"    0"
2019-01-18T19:45:39.775Z,"    0"
2019-01-18T19:50:36.435Z,"    0"
2019-01-18T19:55:32.548Z,"    0"
2019-01-18T20:00:28.208Z,"    0"
2019-01-18T20:05:23.778Z,"    0"
2019-01-18T20:10:20.124Z,"    0"
2019-01-18T20:15:16.982Z,"    0"
2019-01-18T20:20:12.435Z,"    0"
2019-01-18T20:25:08.929Z,"    0"
2019-01-18T20:30:04.407Z,"    0"
2019-01-18T20:35:01.004Z,"    0"
2019-01-18T20:39:56.830Z,"    0"
2019-01-18T20:44:52.145Z,"    0"
2019-01-18T20:49:48.853Z,"    0"
2019-01-18T20:54:46.238Z,"    0"
2019-01-18T20:59:42.578Z,"    0"
2019-01-18T21:04:37.928Z,"    0"
2019-01-18T21:09:34.557Z,"    0"
2019-01-18T21:14:29.737Z,"    0"
2019-01-18T21:19:25.182Z,"    0"
2019-01-18T21:24:20.664Z,"    0"
2019-01-18T21:29:17.012Z,"    0"
2019-01-18T21:34:13.479Z,"    0"
2019-01-18T21:39:08.665Z,"    0"
2019-01-18T21:44:04.144Z,"    0"
2019-01-18T21:48:59.851Z,"    0"
2019-01-18T21:53:56.869Z,"    0"
2019-01-18T21:58:52.200Z,"    0"
2019-01-18T22:03:48.595Z,"    0"
2019-01-18T22:08:44.921Z,"    0"
2019-01-18T22:13:40.229Z,"    0"
2019-01-18T22:18:36.366Z,"    0"
2019-01-18T22:23:31.991Z,"    0"
2019-01-18T22:28:27.611Z,"    0"
2019-01-18T22:33:23.227Z,"    0"
2019-01-18T22:38:18.841Z,"    0"
2019-01-18T22:43:14.362Z,"    0"
2019-01-18T22:48:10.968Z,"    0"
2019-01-18T22:53:06.127Z,"    0"
2019-01-18T22:58:02.812Z,"    0"
2019-01-18T23:02:58.091Z,"    0"
2019-01-18T23:07:53.716Z,"    0"
2019-01-18T23:12:49.385Z,"    0"
2019-01-18T23:17:46.066Z,"    0"
2019-01-18T23:22:41.604Z,"    0"
2019-01-18T23:27:38.333Z,"    0"
2019-01-18T23:32:33.686Z,"    0"
2019-01-18T23:37:30.627Z,"    0"
2019-01-18T23:42:26.972Z,"    0"
2019-01-18T23:47:23.305Z,"    0"
2019-01-18T23:52:18.926Z,"    0"
2019-01-18T23:57:15.022Z,"    0"
